Impacts TAF Board
For situational awareness. Not to be used for flight planning purposes.
IDs:

KSEA - Seattle-Tacoma Intl, WA, US

Issued at 0305 UTC 20 Mar 2019
Updated at 0314 UTC 20 Mar 2019
Potential Impact None Slight Moderate High
Time0253Z 20/04Z 20/05Z 20/06Z 20/07Z 20/08Z 20/09Z 20/10Z 20/11Z 20/12Z 20/13Z 20/14Z 20/15Z 20/16Z>>
Type OBS PRVL PRVL PRVL PRVL PRVL PRVL PRVL PRVL PRVL PRVL PRVL PRVL PRVL
VIS 10 >6 >6 >6 >6 >6 >6 >6 >6 >6 >6 >6 >6 >6
CIG -- -- -- -- -- -- -- -- -- -- -- -- -- --
Cover FEW FEW SKC SKC SKC SKC SKC SKC SKC SKC SKC SKC SKC SKC
FltCat VFR VFR VFR VFR VFR VFR VFR VFR VFR VFR VFR VFR VFR VFR
WX -- -- -- -- -- -- -- -- -- -- -- -- -- --
WDir 100 100 80 80 80 80 50 50 50 50 50 50 30 30
WSpd 13 12 12 12 12 12 6 6 6 6 6 6 12 12
WGst -- -- -- -- -- -- -- -- -- -- -- -- -- --
Raw TAF
KSEA 200305Z 2003/2106 10012KT P6SM FEW250
  FM200500 08012KT P6SM SKC
  FM200900 05006KT P6SM SKC
  FM201500 03012KT P6SM SKC


Raw METAR
KSEA 200253Z 10013KT 10SM FEW250 21/M06 A2994 RMK AO2 SLP142 T02111056 56007
KSEA 200153Z 10011KT 10SM FEW250 22/M05 A2994 RMK AO2 SLP142 T02221050
KSEA 200053Z 11015G23KT 10SM FEW250 24/M04 A2994 RMK AO2 SLP143 T02441044

METAR Board
Radar Display
Forecast Discussion
For situational awareness. Not to be used for flight planning purposes.